createdAt,value
2023-04-22T00:00:55.003Z,21.60
2023-04-22T00:03:23.267Z,25.95
2023-04-22T00:05:50.811Z,23.40
2023-04-22T00:08:18.584Z,20.52
2023-04-22T00:10:45.971Z,20.15
2023-04-22T00:13:13.474Z,22.60
2023-04-22T00:15:40.787Z,22.63
2023-04-22T00:18:14.170Z,18.42
2023-04-22T00:20:46.127Z,22.17
2023-04-22T00:23:13.736Z,23.88
2023-04-22T00:25:41.406Z,30.40
2023-04-22T00:28:09.293Z,28.10
2023-04-22T00:30:36.866Z,29.95
2023-04-22T00:33:04.662Z,33.72
2023-04-22T00:35:31.965Z,30.10
2023-04-22T00:37:59.908Z,27.95
2023-04-22T00:40:27.369Z,36.97
2023-04-22T00:42:55.897Z,32.33
2023-04-22T00:45:23.210Z,29.08
2023-04-22T00:47:51.237Z,29.63
2023-04-22T00:50:18.792Z,29.23
2023-04-22T00:52:46.305Z,26.77
2023-04-22T00:55:13.765Z,27.30
2023-04-22T00:57:41.566Z,28.08
2023-04-22T01:00:10.453Z,28.77
2023-04-22T01:02:41.367Z,29.73
2023-04-22T01:05:10.320Z,25.23
2023-04-22T01:07:38.272Z,27.38
2023-04-22T01:10:06.650Z,25.02
2023-04-22T01:12:34.394Z,29.15
2023-04-22T01:15:04.684Z,21.80
2023-04-22T01:17:33.864Z,23.88
2023-04-22T01:20:05.525Z,19.23
2023-04-22T01:22:41.679Z,24.05
2023-04-22T01:25:13.128Z,20.02
2023-04-22T01:27:41.614Z,20.50
2023-04-22T01:30:11.054Z,19.13
2023-04-22T01:32:40.976Z,21.30
2023-04-22T01:35:10.273Z,26.80
2023-04-22T01:37:38.572Z,28.40
2023-04-22T01:40:07.916Z,30.08
2023-04-22T01:42:36.535Z,32.58
2023-04-22T01:45:04.738Z,29.02
2023-04-22T01:47:32.292Z,29.50
2023-04-22T01:49:59.706Z,28.77
2023-04-22T01:52:27.909Z,29.85
2023-04-22T01:54:55.755Z,28.65
2023-04-22T01:57:23.313Z,35.10
2023-04-22T01:59:50.619Z,23.42
2023-04-22T02:02:18.289Z,33.20
2023-04-22T02:04:45.628Z,29.20
2023-04-22T02:07:13.216Z,30.58
2023-04-22T02:09:41.121Z,28.38
2023-04-22T02:12:09.212Z,26.40
2023-04-22T02:14:36.492Z,28.33
2023-04-22T02:17:04.091Z,27.08
2023-04-22T02:19:31.360Z,25.23
2023-04-22T02:21:59.319Z,19.52
2023-04-22T02:24:26.945Z,20.15
2023-04-22T02:26:54.504Z,21.30
2023-04-22T02:29:21.794Z,17.45
2023-04-22T02:31:49.467Z,26.48
2023-04-22T02:34:16.893Z,25.13
2023-04-22T02:36:44.472Z,24.58
2023-04-22T02:39:11.778Z,21.45
2023-04-22T02:41:39.355Z,26.23
2023-04-22T02:44:06.726Z,25.13
2023-04-22T02:46:34.377Z,32.28
2023-04-22T02:49:01.710Z,25.70
2023-04-22T02:51:29.478Z,27.20
2023-04-22T02:53:56.778Z,35.30
2023-04-22T02:56:24.381Z,26.60
2023-04-22T02:58:51.644Z,20.67
2023-04-22T03:01:19.245Z,22.95
2023-04-22T03:03:46.785Z,27.20
2023-04-22T03:06:14.697Z,20.83
2023-04-22T03:08:41.935Z,17.63
2023-04-22T03:11:09.533Z,21.20
2023-04-22T03:13:36.804Z,17.48
2023-04-22T03:16:04.447Z,17.98
2023-04-22T03:18:32.032Z,21.10
2023-04-22T03:21:03.216Z,21.55
2023-04-22T03:23:30.625Z,27.05
2023-04-22T03:25:58.149Z,20.00
2023-04-22T03:28:25.572Z,21.92
2023-04-22T03:30:53.129Z,19.40
2023-04-22T03:33:21.092Z,21.42
2023-04-22T03:35:51.432Z,19.75
2023-04-22T03:38:18.742Z,17.27
2023-04-22T03:40:46.380Z,20.00
2023-04-22T03:43:13.796Z,17.73
2023-04-22T03:45:41.434Z,22.33
2023-04-22T03:48:09.038Z,20.25
2023-04-22T03:50:36.631Z,17.98
2023-04-22T03:53:03.877Z,18.23
2023-04-22T03:55:31.476Z,17.45
2023-04-22T03:57:58.985Z,18.23
2023-04-22T04:00:26.697Z,16.85
2023-04-22T04:02:54.214Z,19.42
2023-04-22T04:05:22.030Z,21.75
2023-04-22T04:07:49.322Z,17.23
2023-04-22T04:10:17.054Z,18.40
2023-04-22T04:12:44.331Z,19.45
2023-04-22T04:15:12.159Z,28.20
2023-04-22T04:17:39.923Z,27.17
2023-04-22T04:20:08.035Z,24.00
2023-04-22T04:22:35.360Z,21.17
2023-04-22T04:25:03.550Z,25.80
2023-04-22T04:27:30.825Z,19.33
2023-04-22T04:29:58.866Z,21.83
2023-04-22T04:32:26.165Z,23.77
2023-04-22T04:34:54.078Z,22.92
2023-04-22T04:37:22.495Z,24.17
2023-04-22T04:39:50.122Z,21.67
2023-04-22T04:42:17.499Z,21.60
2023-04-22T04:44:45.045Z,21.48
2023-04-22T04:47:13.224Z,20.15
2023-04-22T04:49:41.209Z,18.10
2023-04-22T04:52:11.462Z,20.52
2023-04-22T04:54:39.071Z,18.23
2023-04-22T04:57:06.977Z,18.55
2023-04-22T04:59:38.453Z,19.42
2023-04-22T05:02:06.125Z,18.60
2023-04-22T05:04:33.905Z,23.20
2023-04-22T05:07:01.723Z,22.63
2023-04-22T05:09:29.348Z,21.70
2023-04-22T05:11:56.697Z,19.42
2023-04-22T05:14:24.326Z,19.58
2023-04-22T05:16:51.904Z,17.48
2023-04-22T05:19:19.617Z,25.50
2023-04-22T05:21:46.904Z,29.23
2023-04-22T05:24:14.485Z,23.02
2023-04-22T05:26:42.161Z,21.27
2023-04-22T05:29:09.726Z,24.35
2023-04-22T05:31:36.998Z,27.58
2023-04-22T05:34:04.601Z,30.80
2023-04-22T05:36:32.178Z,34.70
2023-04-22T05:38:59.758Z,31.83
2023-04-22T05:41:27.047Z,36.45
2023-04-22T05:43:54.746Z,37.38
2023-04-22T05:46:22.185Z,33.90
2023-04-22T05:48:49.867Z,35.58
2023-04-22T05:51:17.255Z,33.00
2023-04-22T05:53:44.841Z,36.25
2023-04-22T05:56:12.113Z,34.40
2023-04-22T05:58:39.685Z,29.25
2023-04-22T06:01:06.953Z,39.60
2023-04-22T06:03:34.800Z,30.20
2023-04-22T06:06:02.188Z,25.23
2023-04-22T06:08:31.789Z,24.52
2023-04-22T06:10:59.146Z,23.05
2023-04-22T06:13:27.609Z,24.40
2023-04-22T06:15:55.049Z,25.77
2023-04-22T06:18:22.706Z,24.65
2023-04-22T06:20:50.500Z,22.70
2023-04-22T06:23:18.114Z,26.55
2023-04-22T06:25:45.555Z,26.88
2023-04-22T06:28:13.206Z,24.52
2023-04-22T06:30:40.560Z,28.33
2023-04-22T06:33:08.235Z,26.80
2023-04-22T06:35:35.702Z,30.05
2023-04-22T06:38:03.367Z,24.63
2023-04-22T06:40:30.789Z,25.45
2023-04-22T06:42:58.445Z,29.17
2023-04-22T06:45:25.836Z,24.08
2023-04-22T06:47:56.835Z,24.63
2023-04-22T06:50:24.170Z,23.67
2023-04-22T06:52:51.899Z,23.00
2023-04-22T06:55:19.259Z,21.80
2023-04-22T06:57:47.079Z,18.88
2023-04-22T07:00:14.896Z,18.70
2023-04-22T07:02:42.687Z,23.38
2023-04-22T07:05:10.120Z,19.25
2023-04-22T07:07:37.731Z,22.92
2023-04-22T07:10:06.258Z,29.20
2023-04-22T07:12:33.836Z,37.47
2023-04-22T07:15:01.117Z,25.20
2023-04-22T07:17:28.703Z,28.10
2023-04-22T07:19:56.062Z,21.10
2023-04-22T07:22:23.584Z,20.48
2023-04-22T07:24:50.962Z,19.90
2023-04-22T07:27:18.577Z,19.75
2023-04-22T07:29:45.866Z,20.73
2023-04-22T07:32:13.785Z,17.63
2023-04-22T07:34:41.929Z,19.88
2023-04-22T07:37:10.031Z,17.45
2023-04-22T07:39:37.561Z,18.45
2023-04-22T07:42:05.879Z,18.52
2023-04-22T07:44:33.100Z,18.02
2023-04-22T07:47:00.949Z,15.48
2023-04-22T07:49:28.385Z,16.65
2023-04-22T07:51:56.880Z,15.07
2023-04-22T07:54:24.155Z,15.98
2023-04-22T07:56:51.733Z,19.85
2023-04-22T07:59:19.009Z,15.73
2023-04-22T08:01:46.764Z,19.92
2023-04-22T08:04:14.283Z,14.27
2023-04-22T08:06:42.178Z,11.82
2023-04-22T08:09:10.670Z,11.23
2023-04-22T08:11:38.167Z,11.15
2023-04-22T08:14:05.473Z,9.05
2023-04-22T08:16:34.548Z,7.47
2023-04-22T08:19:01.855Z,10.65
2023-04-22T08:21:29.565Z,13.15
2023-04-22T08:23:57.283Z,10.18
2023-04-22T08:26:24.889Z,11.25
2023-04-22T08:28:52.248Z,8.15
2023-04-22T08:31:19.948Z,6.97
2023-04-22T08:33:47.297Z,9.10
2023-04-22T08:36:15.166Z,6.65
2023-04-22T08:38:42.490Z,8.18
2023-04-22T08:41:10.915Z,5.45
2023-04-22T08:43:38.715Z,5.65
2023-04-22T08:46:06.688Z,7.03
2023-04-22T08:48:33.984Z,8.65
2023-04-22T08:51:01.860Z,5.15
2023-04-22T08:53:29.614Z,7.85
2023-04-22T08:55:58.337Z,11.88
2023-04-22T08:58:27.304Z,5.88
2023-04-22T09:00:56.451Z,8.20
2023-04-22T09:03:24.480Z,5.50
2023-04-22T09:05:53.787Z,4.57
2023-04-22T09:08:21.922Z,5.63
2023-04-22T09:10:50.378Z,4.85
2023-04-22T09:13:18.318Z,4.60
2023-04-22T09:15:46.384Z,6.05
2023-04-22T09:18:19.137Z,5.75
2023-04-22T09:20:56.165Z,10.60
2023-04-22T09:23:23.541Z,6.68
2023-04-22T09:25:51.406Z,5.07
2023-04-22T09:28:19.672Z,5.00
2023-04-22T09:30:48.610Z,4.10
2023-04-22T09:33:17.829Z,4.15
2023-04-22T09:35:46.182Z,3.97
2023-04-22T09:38:13.840Z,3.70
2023-04-22T09:40:45.143Z,3.72
2023-04-22T09:43:19.893Z,3.97
2023-04-22T09:45:47.772Z,10.55
2023-04-22T09:48:20.007Z,4.70
2023-04-22T09:50:52.015Z,3.17
2023-04-22T09:53:21.932Z,4.13
2023-04-22T09:55:55.740Z,3.90
2023-04-22T09:58:28.033Z,3.90
2023-04-22T10:00:59.436Z,4.82
2023-04-22T10:03:26.835Z,4.43
2023-04-22T10:05:54.594Z,4.80
2023-04-22T10:08:21.973Z,3.55
2023-04-22T10:10:49.679Z,3.55
2023-04-22T10:13:17.191Z,4.47
2023-04-22T10:15:55.199Z,4.57
2023-04-22T10:18:26.422Z,5.28
2023-04-22T10:20:56.910Z,3.70
2023-04-22T10:23:25.626Z,4.35
2023-04-22T10:25:57.043Z,4.20
2023-04-22T10:28:30.849Z,3.88
2023-04-22T10:30:58.559Z,4.53
2023-04-22T10:33:29.093Z,3.55
2023-04-22T10:36:16.491Z,4.50
2023-04-22T10:38:56.482Z,3.40
2023-04-22T10:41:32.520Z,3.40
2023-04-22T10:44:09.710Z,3.63
2023-04-22T10:46:58.812Z,3.20
2023-04-22T10:49:30.393Z,3.47
2023-04-22T10:52:00.584Z,3.85
2023-04-22T10:54:31.570Z,2.78
2023-04-22T10:57:07.667Z,2.95
2023-04-22T10:59:50.516Z,2.65
2023-04-22T11:02:20.391Z,3.00
2023-04-22T11:04:50.028Z,3.05
2023-04-22T11:07:26.751Z,4.75
2023-04-22T11:10:07.866Z,3.92
2023-04-22T11:12:38.724Z,5.22
2023-04-22T11:15:23.190Z,3.03
2023-04-22T11:17:55.168Z,5.30
2023-04-22T11:20:23.058Z,4.68
2023-04-22T11:22:56.303Z,2.65
2023-04-22T11:25:26.123Z,3.58
2023-04-22T11:27:55.277Z,3.47
2023-04-22T11:30:26.551Z,4.65
2023-04-22T11:32:59.342Z,2.65
2023-04-22T11:35:32.733Z,3.67
2023-04-22T11:38:03.747Z,3.10
2023-04-22T11:40:38.344Z,4.10
2023-04-22T11:43:09.384Z,3.08
2023-04-22T11:45:39.349Z,6.20
2023-04-22T11:48:10.029Z,2.80
2023-04-22T11:50:44.282Z,3.55
2023-04-22T11:53:24.337Z,4.45
2023-04-22T11:55:52.960Z,3.47
2023-04-22T11:58:27.474Z,3.60
2023-04-22T12:00:57.825Z,4.20
2023-04-22T12:03:31.385Z,3.30
2023-04-22T12:06:06.478Z,2.90
2023-04-22T12:08:45.150Z,3.75
2023-04-22T12:11:13.596Z,3.00
2023-04-22T12:13:43.632Z,2.72
2023-04-22T12:16:13.748Z,3.95
2023-04-22T12:18:50.475Z,3.05
2023-04-22T12:21:25.574Z,3.83
2023-04-22T12:24:05.258Z,3.72
2023-04-22T12:26:32.801Z,4.25
2023-04-22T12:29:01.635Z,3.75
2023-04-22T12:31:29.236Z,4.57
2023-04-22T12:33:57.516Z,6.13
2023-04-22T12:36:25.373Z,3.75
2023-04-22T12:39:12.908Z,3.47
2023-04-22T12:41:40.155Z,4.45
2023-04-22T12:44:08.839Z,3.65
2023-04-22T12:46:36.410Z,10.02
2023-04-22T12:49:04.114Z,3.47
2023-04-22T12:51:31.984Z,3.13
2023-04-22T12:53:59.771Z,2.88
2023-04-22T12:56:27.121Z,2.58
2023-04-22T12:58:54.686Z,3.20
2023-04-22T13:01:22.025Z,5.00
2023-04-22T13:03:53.311Z,2.10
2023-04-22T13:06:20.827Z,8.88
2023-04-22T13:08:48.413Z,3.13
2023-04-22T13:11:15.734Z,3.88
2023-04-22T13:13:43.317Z,2.42
2023-04-22T13:16:11.215Z,3.13
2023-04-22T13:18:38.848Z,2.28
2023-04-22T13:21:06.480Z,3.67
2023-04-22T13:23:37.468Z,2.83
2023-04-22T13:26:04.922Z,3.03
2023-04-22T13:28:33.873Z,1.88
2023-04-22T13:31:01.975Z,5.28
2023-04-22T13:33:29.622Z,7.75
2023-04-22T13:35:59.266Z,3.20
2023-04-22T13:38:26.783Z,2.17
2023-04-22T13:40:54.116Z,4.13
2023-04-22T13:43:22.784Z,2.33
2023-04-22T13:45:50.191Z,2.65
2023-04-22T13:48:17.830Z,3.58
2023-04-22T13:50:45.141Z,2.88
2023-04-22T13:53:14.190Z,4.43
2023-04-22T13:55:43.362Z,2.95
2023-04-22T13:58:11.384Z,2.95
2023-04-22T14:00:38.736Z,3.22
2023-04-22T14:03:06.593Z,3.28
2023-04-22T14:05:34.061Z,4.35
2023-04-22T14:08:01.742Z,3.17
2023-04-22T14:10:28.994Z,2.83
2023-04-22T14:12:56.601Z,2.65
2023-04-22T14:15:25.481Z,2.30
2023-04-22T14:17:54.153Z,2.40
2023-04-22T14:20:22.087Z,3.38
2023-04-22T14:22:49.686Z,2.92
2023-04-22T14:25:16.974Z,6.55
2023-04-22T14:27:44.631Z,4.00
2023-04-22T14:30:13.231Z,5.05
2023-04-22T14:32:40.919Z,3.10
2023-04-22T14:35:08.543Z,3.35
2023-04-22T14:37:36.824Z,4.88
2023-04-22T14:40:04.886Z,3.17
2023-04-22T14:42:32.675Z,4.35
2023-04-22T14:45:00.246Z,2.90
2023-04-22T14:47:29.027Z,3.38
2023-04-22T14:49:56.412Z,3.40
2023-04-22T14:52:24.075Z,4.03
2023-04-22T14:54:52.189Z,3.10
2023-04-22T14:57:19.799Z,3.95
2023-04-22T14:59:47.471Z,4.50
2023-04-22T15:02:16.070Z,3.20
2023-04-22T15:04:44.855Z,4.40
2023-04-22T15:07:12.485Z,3.90
2023-04-22T15:09:40.278Z,3.83
2023-04-22T15:12:08.258Z,3.45
2023-04-22T15:14:36.714Z,3.78
2023-04-22T15:17:05.821Z,4.70
2023-04-22T15:19:33.490Z,4.35
2023-04-22T15:22:01.387Z,5.22
2023-04-22T15:24:28.974Z,4.25
2023-04-22T15:26:58.160Z,3.03
2023-04-22T15:29:25.828Z,3.20
2023-04-22T15:31:54.570Z,8.13
2023-04-22T15:34:22.428Z,7.63
2023-04-22T15:36:50.250Z,4.63
2023-04-22T15:39:17.701Z,4.25
2023-04-22T15:41:45.984Z,3.95
2023-04-22T15:44:14.762Z,4.30
2023-04-22T15:46:42.486Z,4.40
2023-04-22T15:49:09.958Z,4.47
2023-04-22T15:51:37.682Z,5.80
2023-04-22T15:54:05.108Z,3.42
2023-04-22T15:56:34.604Z,4.28
2023-04-22T15:59:01.924Z,3.90
2023-04-22T16:01:29.781Z,3.92
2023-04-22T16:03:57.613Z,21.70
2023-04-22T16:06:25.639Z,5.65
2023-04-22T16:08:53.070Z,10.15
2023-04-22T16:11:20.806Z,12.93
2023-04-22T16:13:48.295Z,6.25
2023-04-22T16:16:16.746Z,7.80
2023-04-22T16:18:44.586Z,3.78
2023-04-22T16:21:12.280Z,4.10
2023-04-22T16:23:39.584Z,6.85
2023-04-22T16:26:07.145Z,5.30
2023-04-22T16:28:34.392Z,5.25
2023-04-22T16:31:02.552Z,6.90
2023-04-22T16:33:29.982Z,6.45
2023-04-22T16:35:57.800Z,9.63
2023-04-22T16:38:25.200Z,14.63
2023-04-22T16:40:54.421Z,9.45
2023-04-22T16:43:22.118Z,7.65
2023-04-22T16:45:49.776Z,7.57
2023-04-22T16:48:17.304Z,5.22
2023-04-22T16:50:44.869Z,5.95
2023-04-22T16:53:12.356Z,7.82
2023-04-22T16:55:40.663Z,5.65
2023-04-22T16:58:07.969Z,5.35
2023-04-22T17:00:36.076Z,5.95
2023-04-22T17:03:04.058Z,4.28
2023-04-22T17:05:33.007Z,5.15
2023-04-22T17:08:00.501Z,5.85
2023-04-22T17:10:29.101Z,5.95
2023-04-22T17:12:56.552Z,4.90
2023-04-22T17:15:24.300Z,9.43
2023-04-22T17:17:51.767Z,7.25
2023-04-22T17:20:19.505Z,10.27
2023-04-22T17:22:46.894Z,8.55
2023-04-22T17:25:14.489Z,7.30
2023-04-22T17:27:41.818Z,6.30
2023-04-22T17:30:09.916Z,9.02
2023-04-22T17:32:37.257Z,8.57
2023-04-22T17:35:05.322Z,9.88
2023-04-22T17:37:32.643Z,18.15
2023-04-22T17:40:00.235Z,13.18
2023-04-22T17:42:38.826Z,10.13
2023-04-22T17:45:13.111Z,6.50
2023-04-22T17:47:40.437Z,7.90
2023-04-22T17:50:08.963Z,5.63
2023-04-22T17:52:36.442Z,7.18
2023-04-22T17:55:04.627Z,6.50
2023-04-22T17:57:35.079Z,7.63
2023-04-22T18:00:03.965Z,11.30
2023-04-22T18:02:31.726Z,8.27
2023-04-22T18:04:59.373Z,11.10
2023-04-22T18:07:26.639Z,10.57
2023-04-22T18:09:54.203Z,12.23
2023-04-22T18:12:24.214Z,15.38
2023-04-22T18:14:51.880Z,14.73
2023-04-22T18:17:21.739Z,14.45
2023-04-22T18:19:50.931Z,9.85
2023-04-22T18:22:19.484Z,11.10
2023-04-22T18:24:47.176Z,14.05
2023-04-22T18:27:14.486Z,10.25
2023-04-22T18:29:42.612Z,9.13
2023-04-22T18:32:11.415Z,8.52
2023-04-22T18:34:39.749Z,8.10
2023-04-22T18:37:07.423Z,9.95
2023-04-22T18:39:34.956Z,9.48
2023-04-22T18:42:02.750Z,16.95
2023-04-22T18:44:30.598Z,12.77
2023-04-22T18:46:58.495Z,12.35
2023-04-22T18:49:26.461Z,13.32
2023-04-22T18:51:53.823Z,11.65
2023-04-22T18:54:30.678Z,10.55
2023-04-22T18:56:58.340Z,7.15
2023-04-22T18:59:26.172Z,10.10
2023-04-22T19:01:53.600Z,9.57
2023-04-22T19:04:21.501Z,11.85
2023-04-22T19:06:50.720Z,7.78
2023-04-22T19:09:18.306Z,7.43
2023-04-22T19:11:46.172Z,7.65
2023-04-22T19:14:14.604Z,8.57
2023-04-22T19:16:43.136Z,9.60
2023-04-22T19:19:12.014Z,7.47
2023-04-22T19:21:39.799Z,9.30
2023-04-22T19:24:07.942Z,7.18
2023-04-22T19:26:35.779Z,6.47
2023-04-22T19:29:03.460Z,8.55
2023-04-22T19:31:31.649Z,6.82
2023-04-22T19:33:59.533Z,7.47
2023-04-22T19:36:27.101Z,7.50
2023-04-22T19:38:54.721Z,8.05
2023-04-22T19:41:22.386Z,11.60
2023-04-22T19:43:49.942Z,7.45
2023-04-22T19:46:17.292Z,8.20
2023-04-22T19:48:45.279Z,8.80
2023-04-22T19:51:12.834Z,8.35
2023-04-22T19:53:41.555Z,9.68
2023-04-22T19:56:09.656Z,7.35
2023-04-22T19:58:38.968Z,8.43
2023-04-22T20:01:06.624Z,9.00
2023-04-22T20:03:35.329Z,9.32
2023-04-22T20:06:03.850Z,8.70
2023-04-22T20:08:31.941Z,9.32
2023-04-22T20:11:00.723Z,8.65
2023-04-22T20:13:28.667Z,9.23
2023-04-22T20:15:56.300Z,7.82
2023-04-22T20:18:24.227Z,14.30
2023-04-22T20:20:57.347Z,11.82
2023-04-22T20:23:27.930Z,11.80
2023-04-22T20:25:58.906Z,10.13
2023-04-22T20:28:46.060Z,9.05
2023-04-22T20:31:16.707Z,12.75
2023-04-22T20:33:45.006Z,9.90
2023-04-22T20:36:16.861Z,11.35
2023-04-22T20:38:48.813Z,9.55
2023-04-22T20:41:20.224Z,11.80
2023-04-22T20:43:47.928Z,10.75
2023-04-22T20:46:15.215Z,13.48
2023-04-22T20:48:42.895Z,16.08
2023-04-22T20:51:10.209Z,11.27
2023-04-22T20:53:38.238Z,14.02
2023-04-22T20:56:06.116Z,11.50
2023-04-22T20:58:33.686Z,11.02
2023-04-22T21:01:01.191Z,10.50
2023-04-22T21:03:29.933Z,13.00
2023-04-22T21:05:58.508Z,13.15
2023-04-22T21:08:27.241Z,13.10
2023-04-22T21:10:56.781Z,10.93
2023-04-22T21:13:24.712Z,10.73
2023-04-22T21:16:08.309Z,11.02
2023-04-22T21:18:40.815Z,11.77
2023-04-22T21:21:10.099Z,13.23
2023-04-22T21:23:40.368Z,10.73
2023-04-22T21:26:10.550Z,10.73
2023-04-22T21:28:39.242Z,14.07
2023-04-22T21:31:07.404Z,12.02
2023-04-22T21:33:35.015Z,12.18
2023-04-22T21:36:02.465Z,15.65
2023-04-22T21:38:30.125Z,11.82
2023-04-22T21:40:57.453Z,12.98
2023-04-22T21:43:24.925Z,12.18
2023-04-22T21:45:52.157Z,12.82
2023-04-22T21:48:19.701Z,13.18
2023-04-22T21:50:47.035Z,13.20
2023-04-22T21:53:14.770Z,13.93
2023-04-22T21:55:42.148Z,19.27
2023-04-22T21:58:09.741Z,12.48
2023-04-22T22:00:37.986Z,12.68
2023-04-22T22:03:06.483Z,13.05
2023-04-22T22:05:33.909Z,15.30
2023-04-22T22:08:01.941Z,13.32
2023-04-22T22:10:29.501Z,12.90
2023-04-22T22:12:57.113Z,15.30
2023-04-22T22:15:24.512Z,11.25
2023-04-22T22:17:52.249Z,12.45
2023-04-22T22:20:22.591Z,10.00
2023-04-22T22:22:50.258Z,11.80
2023-04-22T22:25:18.408Z,12.68
2023-04-22T22:27:47.171Z,11.93
2023-04-22T22:30:17.044Z,11.18
2023-04-22T22:32:45.471Z,13.05
2023-04-22T22:35:13.217Z,14.27
2023-04-22T22:37:41.853Z,10.52
2023-04-22T22:40:10.241Z,12.90
2023-04-22T22:42:37.840Z,12.57
2023-04-22T22:45:05.754Z,11.60
2023-04-22T22:47:33.536Z,13.93
2023-04-22T22:50:00.880Z,12.00
2023-04-22T22:52:28.731Z,14.23
2023-04-22T22:54:56.020Z,12.90
2023-04-22T22:57:23.563Z,9.27
2023-04-22T22:59:50.869Z,11.13
2023-04-22T23:02:18.631Z,14.10
2023-04-22T23:04:46.328Z,11.40
2023-04-22T23:07:14.832Z,11.93
2023-04-22T23:09:42.373Z,12.55
2023-04-22T23:12:09.918Z,14.00
2023-04-22T23:14:37.161Z,13.05
2023-04-22T23:17:04.854Z,13.13
2023-04-22T23:19:33.785Z,13.88
2023-04-22T23:22:02.369Z,13.63
2023-04-22T23:24:30.006Z,11.48
2023-04-22T23:26:57.876Z,16.17
2023-04-22T23:29:25.497Z,13.27
2023-04-22T23:31:53.514Z,17.23
2023-04-22T23:34:25.878Z,18.65
2023-04-22T23:36:57.118Z,19.27
2023-04-22T23:39:24.665Z,17.13
2023-04-22T23:41:52.135Z,17.83
2023-04-22T23:44:19.464Z,16.70
2023-04-22T23:46:48.143Z,18.20
2023-04-22T23:49:15.951Z,21.67
2023-04-22T23:51:43.904Z,19.55
2023-04-22T23:54:11.185Z,22.30
2023-04-22T23:56:39.237Z,17.10
2023-04-22T23:59:07.280Z,18.83
